createdAt,value
2023-03-18T00:01:04.104Z,90.00
2023-03-18T00:03:33.862Z,89.80
2023-03-18T00:06:06.367Z,89.50
2023-03-18T00:08:33.899Z,89.10
2023-03-18T00:11:02.145Z,88.70
2023-03-18T00:13:29.382Z,88.70
2023-03-18T00:15:56.623Z,88.60
2023-03-18T00:18:23.643Z,88.60
2023-03-18T00:20:51.190Z,88.70
2023-03-18T00:23:18.158Z,88.80
2023-03-18T00:25:48.360Z,88.80
2023-03-18T00:28:17.881Z,88.90
2023-03-18T00:30:46.516Z,89.00
2023-03-18T00:33:13.638Z,89.40
2023-03-18T00:35:40.655Z,89.80
2023-03-18T00:38:09.115Z,90.00
2023-03-18T00:40:53.617Z,90.20
2023-03-18T00:43:29.711Z,90.30
2023-03-18T00:45:57.618Z,90.50
2023-03-18T00:48:25.204Z,90.70
2023-03-18T00:50:52.628Z,91.00
2023-03-18T00:53:19.993Z,91.20
2023-03-18T00:55:47.117Z,91.30
2023-03-18T00:58:14.395Z,91.60
2023-03-18T01:00:41.733Z,91.60
2023-03-18T01:03:09.529Z,91.60
2023-03-18T01:05:38.352Z,91.60
2023-03-18T01:08:05.741Z,91.70
2023-03-18T01:10:39.626Z,91.60
2023-03-18T01:13:06.745Z,91.70
2023-03-18T01:15:33.650Z,91.70
2023-03-18T01:18:01.397Z,91.80
2023-03-18T01:20:29.532Z,92.00
2023-03-18T01:22:57.032Z,92.10
2023-03-18T01:25:24.272Z,92.10
2023-03-18T01:27:51.258Z,92.20
2023-03-18T01:30:19.974Z,92.10
2023-03-18T01:32:47.944Z,92.10
2023-03-18T01:35:14.936Z,91.90
2023-03-18T01:37:42.241Z,91.80
2023-03-18T01:40:11.708Z,91.80
2023-03-18T01:42:39.082Z,91.80
2023-03-18T01:45:16.508Z,91.80
2023-03-18T01:47:44.889Z,91.90
2023-03-18T01:50:14.026Z,92.10
2023-03-18T01:52:43.713Z,92.20
2023-03-18T01:55:17.334Z,92.30
2023-03-18T01:57:45.537Z,92.40
2023-03-18T02:00:12.906Z,92.60
2023-03-18T02:02:41.034Z,92.90
2023-03-18T02:05:11.365Z,92.90
2023-03-18T02:07:41.204Z,92.90
2023-03-18T02:10:13.617Z,92.80
2023-03-18T02:12:44.890Z,92.60
2023-03-18T02:15:22.767Z,92.50
2023-03-18T02:17:59.825Z,92.30
2023-03-18T02:20:48.373Z,92.20
2023-03-18T02:23:33.516Z,92.00
2023-03-18T02:26:18.061Z,92.00
2023-03-18T02:28:47.113Z,92.00
2023-03-18T02:31:16.916Z,92.00
2023-03-18T02:33:44.729Z,92.00
2023-03-18T02:36:17.823Z,92.10
2023-03-18T02:38:46.484Z,92.10
2023-03-18T02:41:26.518Z,92.10
2023-03-18T02:43:54.004Z,92.10
2023-03-18T02:46:40.101Z,92.20
2023-03-18T02:49:08.788Z,92.30
2023-03-18T02:51:37.239Z,92.40
2023-03-18T02:54:10.612Z,92.50
2023-03-18T02:56:38.719Z,92.50
2023-03-18T02:59:06.201Z,92.60
2023-03-18T03:01:33.807Z,92.70
2023-03-18T03:04:01.911Z,92.80
2023-03-18T03:06:29.407Z,93.00
2023-03-18T03:08:57.392Z,93.20
2023-03-18T03:11:25.266Z,93.30
2023-03-18T03:13:52.343Z,93.40
2023-03-18T03:16:20.370Z,93.50
2023-03-18T03:18:47.631Z,93.70
2023-03-18T03:21:14.921Z,93.80
2023-03-18T03:23:44.866Z,93.90
2023-03-18T03:26:12.038Z,94.00
2023-03-18T03:28:38.918Z,94.20
2023-03-18T03:31:06.865Z,94.40
2023-03-18T03:33:33.681Z,94.60
2023-03-18T03:36:00.494Z,94.80
2023-03-18T03:38:27.367Z,94.90
2023-03-18T03:40:54.338Z,95.10
2023-03-18T03:43:21.430Z,95.30
2023-03-18T03:45:49.014Z,95.50
2023-03-18T03:48:15.872Z,95.80
2023-03-18T03:50:42.785Z,96.20
2023-03-18T03:53:10.516Z,96.50
2023-03-18T03:55:37.894Z,96.80
2023-03-18T03:58:04.751Z,97.00
2023-03-18T04:00:33.151Z,97.30
2023-03-18T04:03:00.236Z,97.90
2023-03-18T04:05:28.043Z,98.30
2023-03-18T04:07:55.597Z,98.40
2023-03-18T04:10:22.804Z,98.50
2023-03-18T04:12:50.289Z,98.50
2023-03-18T04:15:18.578Z,98.70
2023-03-18T04:17:45.944Z,98.90
2023-03-18T04:20:13.791Z,99.10
2023-03-18T04:22:41.807Z,99.10
2023-03-18T04:25:11.129Z,99.20
2023-03-18T04:27:38.835Z,99.00
2023-03-18T04:30:08.306Z,99.10
2023-03-18T04:32:35.401Z,99.20
2023-03-18T04:35:02.672Z,99.40
2023-03-18T04:37:29.596Z,99.50
2023-03-18T04:39:56.687Z,99.90
2023-03-18T04:42:23.454Z,99.90
2023-03-18T04:44:50.212Z,99.90
2023-03-18T04:47:17.077Z,99.80
2023-03-18T04:49:44.016Z,99.80
2023-03-18T04:52:11.289Z,99.90
2023-03-18T04:54:39.121Z,99.90
2023-03-18T04:57:06.801Z,99.80
2023-03-18T04:59:33.758Z,99.70
2023-03-18T05:02:00.760Z,99.70
2023-03-18T05:04:28.225Z,99.70
2023-03-18T05:06:55.082Z,99.90
2023-03-18T05:09:22.056Z,99.90
2023-03-18T05:11:48.839Z,99.90
2023-03-18T05:14:15.645Z,99.90
2023-03-18T05:16:43.226Z,99.90
2023-03-18T05:19:10.715Z,99.90
2023-03-18T05:21:38.265Z,99.90
2023-03-18T05:24:05.280Z,99.90
2023-03-18T05:26:32.083Z,99.90
2023-03-18T05:28:59.845Z,99.90
2023-03-18T05:31:26.967Z,99.90
2023-03-18T05:33:53.806Z,99.90
2023-03-18T05:36:20.692Z,99.90
2023-03-18T05:38:47.522Z,99.90
2023-03-18T05:41:14.384Z,99.90
2023-03-18T05:43:41.148Z,99.90
2023-03-18T05:46:08.217Z,99.90
2023-03-18T05:48:35.087Z,99.90
2023-03-18T05:51:01.946Z,99.90
2023-03-18T05:53:28.700Z,99.90
2023-03-18T05:55:56.471Z,99.90
2023-03-18T05:58:24.082Z,99.90
2023-03-18T06:00:50.967Z,99.90
2023-03-18T06:03:18.376Z,99.90
2023-03-18T06:05:45.239Z,99.90
2023-03-18T06:08:13.125Z,99.90
2023-03-18T06:10:40.282Z,99.90
2023-03-18T06:13:07.854Z,99.90
2023-03-18T06:15:34.878Z,99.90
2023-03-18T06:18:01.800Z,99.90
2023-03-18T06:20:28.879Z,99.90
2023-03-18T06:22:55.711Z,99.90
2023-03-18T06:25:23.373Z,99.90
2023-03-18T06:27:51.067Z,99.90
2023-03-18T06:30:18.947Z,99.90
2023-03-18T06:32:46.433Z,99.90
2023-03-18T06:35:13.593Z,99.90
2023-03-18T06:37:40.990Z,99.90
2023-03-18T06:40:09.557Z,99.90
2023-03-18T06:42:36.383Z,99.90
2023-03-18T06:45:03.941Z,99.90
2023-03-18T06:47:30.777Z,99.90
2023-03-18T06:49:57.979Z,99.90
2023-03-18T06:52:24.949Z,99.90
2023-03-18T06:54:51.994Z,99.90
2023-03-18T06:57:20.387Z,99.90
2023-03-18T06:59:48.052Z,99.90
2023-03-18T07:02:15.468Z,99.90
2023-03-18T07:04:42.674Z,99.90
2023-03-18T07:07:10.072Z,99.90
2023-03-18T07:09:36.886Z,99.90
2023-03-18T07:12:03.863Z,99.90
2023-03-18T07:14:30.764Z,99.90
2023-03-18T07:16:57.645Z,99.90
2023-03-18T07:19:24.854Z,99.90
2023-03-18T07:21:52.226Z,99.90
2023-03-18T07:24:21.545Z,99.90
2023-03-18T07:26:50.424Z,99.90
2023-03-18T07:29:18.083Z,99.90
2023-03-18T07:31:45.031Z,99.90
2023-03-18T07:34:15.423Z,99.80
2023-03-18T07:36:42.675Z,99.20
2023-03-18T07:39:11.157Z,98.90
2023-03-18T07:41:38.175Z,98.70
2023-03-18T07:44:06.824Z,98.70
2023-03-18T07:46:34.029Z,98.60
2023-03-18T07:49:01.180Z,98.20
2023-03-18T07:51:28.177Z,98.00
2023-03-18T07:53:55.280Z,97.90
2023-03-18T07:56:22.243Z,97.50
2023-03-18T07:58:49.035Z,97.00
2023-03-18T08:01:18.512Z,96.30
2023-03-18T08:03:46.733Z,95.60
2023-03-18T08:06:15.546Z,94.60
2023-03-18T08:08:43.088Z,93.80
2023-03-18T08:11:10.260Z,93.60
2023-03-18T08:13:38.827Z,93.50
2023-03-18T08:16:06.281Z,93.40
2023-03-18T08:18:33.124Z,93.50
2023-03-18T08:21:00.517Z,93.70
2023-03-18T08:23:27.404Z,93.60
2023-03-18T08:25:54.248Z,93.70
2023-03-18T08:28:21.077Z,93.80
2023-03-18T08:30:48.798Z,93.90
2023-03-18T08:33:16.057Z,94.00
2023-03-18T08:35:42.921Z,94.10
2023-03-18T08:38:10.308Z,93.70
2023-03-18T08:40:37.151Z,93.30
2023-03-18T08:43:07.516Z,93.20
2023-03-18T08:45:36.595Z,92.60
2023-03-18T08:48:03.624Z,92.50
2023-03-18T08:50:30.438Z,92.60
2023-03-18T08:52:58.460Z,92.50
2023-03-18T08:55:39.787Z,92.40
2023-03-18T08:58:07.777Z,92.20
2023-03-18T09:00:36.664Z,92.30
2023-03-18T09:03:04.460Z,92.30
2023-03-18T09:05:32.976Z,92.20
2023-03-18T09:08:00.438Z,92.00
2023-03-18T09:10:27.659Z,91.90
2023-03-18T09:12:54.411Z,91.80
2023-03-18T09:15:22.444Z,91.80
2023-03-18T09:18:08.020Z,91.90
2023-03-18T09:20:36.255Z,92.00
2023-03-18T09:23:04.046Z,91.90
2023-03-18T09:25:31.105Z,91.90
2023-03-18T09:27:58.167Z,91.90
2023-03-18T09:30:26.474Z,91.90
2023-03-18T09:32:54.090Z,91.70
2023-03-18T09:35:21.011Z,91.60
2023-03-18T09:37:48.440Z,91.50
2023-03-18T09:40:40.058Z,91.60
2023-03-18T09:43:25.917Z,91.60
2023-03-18T09:46:25.142Z,91.30
2023-03-18T09:49:30.359Z,91.00
2023-03-18T09:52:06.722Z,90.90
2023-03-18T09:54:43.405Z,91.00
2023-03-18T09:57:20.829Z,91.10
2023-03-18T09:59:57.492Z,90.70
2023-03-18T10:02:32.837Z,90.40
2023-03-18T10:05:05.667Z,90.30
2023-03-18T10:07:38.310Z,90.40
2023-03-18T10:10:30.282Z,90.60
2023-03-18T10:13:14.062Z,90.50
2023-03-18T10:15:46.293Z,90.60
2023-03-18T10:18:17.032Z,90.40
2023-03-18T10:21:07.040Z,90.50
2023-03-18T10:23:58.730Z,90.10
2023-03-18T10:26:53.030Z,90.40
2023-03-18T10:29:40.662Z,90.20
2023-03-18T10:32:39.148Z,90.20
2023-03-18T10:35:47.316Z,90.00
2023-03-18T10:38:30.814Z,89.80
2023-03-18T10:40:59.065Z,89.80
2023-03-18T10:43:30.641Z,89.90
2023-03-18T10:46:11.883Z,90.00
2023-03-18T10:48:42.362Z,90.00
2023-03-18T10:51:46.065Z,89.90
2023-03-18T10:54:32.632Z,88.90
2023-03-18T10:56:59.559Z,88.60
2023-03-18T10:59:28.631Z,89.70
2023-03-18T11:02:02.343Z,89.40
2023-03-18T11:04:32.764Z,89.20
2023-03-18T11:07:03.841Z,89.10
2023-03-18T11:09:37.002Z,88.30
2023-03-18T11:12:06.881Z,87.80
2023-03-18T11:14:37.389Z,87.70
2023-03-18T11:17:19.710Z,87.80
2023-03-18T11:19:48.879Z,87.80
2023-03-18T11:22:27.357Z,88.70
2023-03-18T11:25:16.549Z,88.50
2023-03-18T11:27:46.495Z,88.60
2023-03-18T11:30:34.387Z,88.40
2023-03-18T11:33:10.719Z,88.40
2023-03-18T11:35:40.787Z,88.40
2023-03-18T11:38:34.965Z,88.50
2023-03-18T11:41:23.154Z,88.50
2023-03-18T11:44:18.581Z,88.10
2023-03-18T11:47:03.969Z,88.00
2023-03-18T11:49:31.538Z,87.90
2023-03-18T11:52:34.930Z,88.30
2023-03-18T11:55:21.890Z,88.60
2023-03-18T11:58:10.498Z,88.20
2023-03-18T12:00:37.285Z,87.80
2023-03-18T12:03:41.946Z,87.60
2023-03-18T12:06:24.995Z,87.40
2023-03-18T12:08:57.119Z,87.50
2023-03-18T12:11:26.613Z,87.70
2023-03-18T12:14:22.628Z,87.90
2023-03-18T12:17:05.421Z,88.00
2023-03-18T12:19:58.877Z,87.40
2023-03-18T12:23:00.276Z,87.20
2023-03-18T12:26:00.877Z,87.60
2023-03-18T12:29:07.321Z,87.60
2023-03-18T12:31:39.981Z,87.90
2023-03-18T12:34:25.638Z,87.50
2023-03-18T12:37:34.380Z,87.30
2023-03-18T12:40:07.988Z,87.20
2023-03-18T12:42:58.411Z,87.20
2023-03-18T12:45:37.608Z,87.20
2023-03-18T12:48:42.444Z,86.00
2023-03-18T12:51:18.453Z,86.20
2023-03-18T12:53:52.464Z,86.00
2023-03-18T12:56:25.811Z,86.00
2023-03-18T12:58:57.066Z,86.30
2023-03-18T13:01:48.115Z,86.00
2023-03-18T13:04:27.019Z,86.10
2023-03-18T13:07:15.909Z,86.60
2023-03-18T13:09:52.771Z,86.10
2023-03-18T13:12:33.605Z,86.20
2023-03-18T13:15:02.604Z,86.20
2023-03-18T13:17:34.189Z,86.50
2023-03-18T13:20:04.806Z,86.30
2023-03-18T13:22:55.008Z,85.40
2023-03-18T13:25:49.575Z,85.60
2023-03-18T13:28:41.757Z,85.20
2023-03-18T13:31:16.698Z,85.60
2023-03-18T13:33:49.750Z,85.60
2023-03-18T13:37:04.109Z,85.90
2023-03-18T13:39:59.352Z,85.20
2023-03-18T13:42:29.967Z,84.50
2023-03-18T13:45:10.890Z,84.40
2023-03-18T13:47:42.878Z,84.50
2023-03-18T13:50:19.058Z,84.70
2023-03-18T13:52:47.874Z,84.40
2023-03-18T13:55:42.982Z,84.60
2023-03-18T13:58:16.343Z,84.20
2023-03-18T14:00:46.096Z,84.50
2023-03-18T14:03:23.213Z,84.60
2023-03-18T14:06:08.577Z,84.80
2023-03-18T14:08:47.367Z,84.70
2023-03-18T14:11:17.313Z,84.90
2023-03-18T14:13:50.821Z,84.90
2023-03-18T14:16:23.380Z,85.10
2023-03-18T14:19:00.367Z,85.70
2023-03-18T14:21:29.718Z,85.80
2023-03-18T14:24:19.316Z,85.20
2023-03-18T14:26:58.265Z,84.70
2023-03-18T14:29:26.647Z,84.30
2023-03-18T14:32:02.697Z,84.60
2023-03-18T14:34:33.263Z,84.50
2023-03-18T14:37:00.280Z,84.60
2023-03-18T14:39:33.420Z,84.90
2023-03-18T14:42:03.488Z,85.00
2023-03-18T14:44:43.531Z,85.10
2023-03-18T14:47:38.358Z,85.30
2023-03-18T14:50:21.387Z,85.20
2023-03-18T14:53:02.896Z,84.50
2023-03-18T14:55:35.518Z,84.50
2023-03-18T14:58:03.217Z,84.70
2023-03-18T15:00:36.645Z,84.80
2023-03-18T15:03:14.474Z,84.00
2023-03-18T15:05:43.446Z,84.30
2023-03-18T15:08:17.929Z,84.00
2023-03-18T15:10:51.689Z,82.70
2023-03-18T15:13:24.200Z,83.10
2023-03-18T15:15:54.952Z,83.40
2023-03-18T15:18:29.499Z,83.80
2023-03-18T15:21:24.187Z,84.00
2023-03-18T15:24:00.986Z,84.00
2023-03-18T15:26:36.142Z,84.20
2023-03-18T15:29:24.329Z,84.70
2023-03-18T15:31:51.899Z,84.10
2023-03-18T15:34:21.598Z,83.80
2023-03-18T15:36:56.732Z,83.80
2023-03-18T15:39:32.550Z,83.70
2023-03-18T15:42:00.722Z,84.30
2023-03-18T15:44:35.108Z,84.20
2023-03-18T15:47:20.918Z,84.20
2023-03-18T15:49:54.902Z,84.40
2023-03-18T15:52:27.899Z,83.90
2023-03-18T15:54:54.720Z,83.80
2023-03-18T15:57:33.228Z,84.10
2023-03-18T16:00:00.242Z,84.30
2023-03-18T16:02:28.721Z,84.20
2023-03-18T16:05:26.389Z,84.40
2023-03-18T16:07:53.934Z,84.30
2023-03-18T16:10:23.134Z,84.10
2023-03-18T16:12:57.913Z,84.40
2023-03-18T16:15:26.457Z,84.50
2023-03-18T16:17:54.879Z,84.60
2023-03-18T16:20:27.570Z,84.80
2023-03-18T16:22:54.546Z,85.00
2023-03-18T16:25:23.526Z,85.20
2023-03-18T16:27:53.899Z,85.40
2023-03-18T16:30:31.086Z,85.40
2023-03-18T16:32:58.824Z,85.10
2023-03-18T16:35:33.644Z,85.40
2023-03-18T16:38:01.129Z,85.60
2023-03-18T16:40:29.909Z,85.70
2023-03-18T16:42:57.913Z,85.90
2023-03-18T16:45:30.378Z,86.50
2023-03-18T16:48:03.270Z,86.60
2023-03-18T16:50:34.506Z,86.90
2023-03-18T16:53:04.304Z,87.10
2023-03-18T16:55:31.595Z,87.40
2023-03-18T16:58:03.139Z,87.40
2023-03-18T17:00:34.148Z,87.60
2023-03-18T17:03:01.816Z,87.90
2023-03-18T17:05:29.233Z,87.90
2023-03-18T17:07:56.156Z,87.80
2023-03-18T17:10:27.665Z,88.00
2023-03-18T17:13:05.865Z,88.20
2023-03-18T17:15:36.954Z,88.20
2023-03-18T17:18:11.970Z,88.40
2023-03-18T17:20:38.813Z,88.10
2023-03-18T17:23:05.888Z,88.00
2023-03-18T17:25:33.242Z,88.10
2023-03-18T17:28:07.036Z,88.40
2023-03-18T17:30:39.369Z,88.40
2023-03-18T17:33:19.906Z,88.50
2023-03-18T17:35:46.890Z,88.90
2023-03-18T17:38:15.604Z,89.00
2023-03-18T17:40:43.162Z,89.10
2023-03-18T17:43:25.009Z,89.20
2023-03-18T17:45:51.943Z,89.10
2023-03-18T17:48:22.193Z,89.00
2023-03-18T17:50:51.172Z,88.90
2023-03-18T17:53:32.630Z,88.90
2023-03-18T17:56:00.017Z,88.90
2023-03-18T17:58:29.029Z,89.20
2023-03-18T18:01:06.210Z,89.60
2023-03-18T18:03:35.206Z,89.80
2023-03-18T18:06:03.492Z,90.00
2023-03-18T18:08:31.689Z,90.00
2023-03-18T18:11:17.742Z,90.00
2023-03-18T18:13:45.053Z,89.90
2023-03-18T18:16:12.276Z,89.90
2023-03-18T18:18:40.036Z,90.00
2023-03-18T18:21:14.610Z,90.00
2023-03-18T18:23:42.921Z,89.80
2023-03-18T18:26:13.642Z,90.00
2023-03-18T18:28:46.348Z,90.30
2023-03-18T18:31:14.620Z,90.40
2023-03-18T18:33:42.658Z,90.50
2023-03-18T18:36:09.935Z,90.60
2023-03-18T18:38:36.745Z,90.60
2023-03-18T18:41:03.818Z,90.50
2023-03-18T18:43:30.804Z,90.50
2023-03-18T18:45:59.536Z,90.50
2023-03-18T18:48:31.549Z,90.50
2023-03-18T18:50:59.399Z,90.50
2023-03-18T18:53:32.113Z,90.60
2023-03-18T18:56:01.356Z,90.60
2023-03-18T18:58:32.691Z,90.60
2023-03-18T19:01:00.786Z,90.70
2023-03-18T19:03:31.220Z,90.70
2023-03-18T19:06:00.960Z,90.80
2023-03-18T19:08:34.344Z,90.80
2023-03-18T19:11:04.281Z,90.80
2023-03-18T19:13:33.566Z,90.80
2023-03-18T19:16:08.426Z,90.70
2023-03-18T19:18:41.094Z,90.80
2023-03-18T19:21:08.233Z,91.10
2023-03-18T19:23:36.192Z,91.30
2023-03-18T19:26:05.186Z,91.40
2023-03-18T19:28:57.716Z,91.50
2023-03-18T19:31:30.340Z,91.40
2023-03-18T19:33:59.678Z,91.40
2023-03-18T19:36:30.508Z,91.40
2023-03-18T19:38:59.377Z,91.50
2023-03-18T19:41:26.826Z,91.50
2023-03-18T19:43:58.154Z,91.40
2023-03-18T19:46:32.515Z,91.50
2023-03-18T19:48:59.413Z,91.70
2023-03-18T19:51:26.454Z,91.90
2023-03-18T19:53:53.350Z,91.90
2023-03-18T19:56:28.715Z,92.00
2023-03-18T19:58:58.903Z,92.00
2023-03-18T20:01:27.138Z,92.00
2023-03-18T20:03:58.439Z,92.00
2023-03-18T20:06:26.357Z,92.10
2023-03-18T20:08:53.205Z,92.10
2023-03-18T20:11:23.292Z,92.10
2023-03-18T20:13:50.060Z,92.10
2023-03-18T20:16:19.462Z,92.10
2023-03-18T20:18:46.315Z,92.00
2023-03-18T20:21:27.143Z,92.00
2023-03-18T20:23:56.156Z,91.90
2023-03-18T20:26:23.175Z,91.70
2023-03-18T20:28:55.375Z,91.50
2023-03-18T20:31:22.586Z,91.30
2023-03-18T20:33:49.452Z,91.30
2023-03-18T20:36:19.829Z,91.30
2023-03-18T20:38:49.690Z,91.40
2023-03-18T20:41:18.052Z,91.50
2023-03-18T20:43:45.815Z,91.50
2023-03-18T20:46:14.406Z,91.50
2023-03-18T20:48:41.955Z,91.60
2023-03-18T20:51:21.264Z,91.80
2023-03-18T20:53:49.471Z,91.70
2023-03-18T20:56:16.943Z,91.70
2023-03-18T20:58:43.741Z,91.50
2023-03-18T21:01:13.800Z,91.50
2023-03-18T21:03:41.457Z,91.30
2023-03-18T21:06:16.397Z,91.30
2023-03-18T21:08:43.595Z,91.30
2023-03-18T21:11:21.690Z,91.40
2023-03-18T21:13:48.979Z,91.50
2023-03-18T21:16:16.875Z,91.60
2023-03-18T21:18:48.360Z,91.60
2023-03-18T21:21:25.069Z,91.60
2023-03-18T21:23:53.991Z,91.60
2023-03-18T21:26:22.563Z,91.70
2023-03-18T21:28:50.033Z,91.70
2023-03-18T21:31:32.868Z,91.90
2023-03-18T21:34:01.073Z,92.00
2023-03-18T21:36:28.014Z,92.10
2023-03-18T21:38:57.474Z,92.20
2023-03-18T21:41:28.034Z,92.30
2023-03-18T21:43:55.692Z,92.40
2023-03-18T21:46:28.595Z,92.60
2023-03-18T21:48:56.029Z,92.80
2023-03-18T21:51:38.465Z,93.10
2023-03-18T21:54:06.308Z,93.40
2023-03-18T21:56:33.225Z,93.50
2023-03-18T21:59:00.145Z,93.60
2023-03-18T22:01:32.196Z,93.70
2023-03-18T22:03:59.638Z,93.70
2023-03-18T22:06:26.846Z,93.70
2023-03-18T22:08:53.638Z,94.00
2023-03-18T22:11:24.908Z,94.10
2023-03-18T22:13:51.731Z,94.20
2023-03-18T22:16:18.989Z,94.10
2023-03-18T22:18:47.487Z,94.00
2023-03-18T22:21:25.012Z,93.90
2023-03-18T22:23:52.436Z,93.70
2023-03-18T22:26:20.698Z,93.60
2023-03-18T22:28:48.433Z,93.50
2023-03-18T22:31:21.683Z,93.30
2023-03-18T22:33:48.610Z,93.30
2023-03-18T22:36:17.302Z,93.20
2023-03-18T22:38:44.905Z,93.20
2023-03-18T22:41:21.264Z,93.10
2023-03-18T22:43:48.882Z,93.00
2023-03-18T22:46:16.235Z,93.10
2023-03-18T22:48:43.478Z,93.10
2023-03-18T22:51:26.132Z,93.20
2023-03-18T22:53:53.530Z,93.40
2023-03-18T22:56:22.102Z,93.60
2023-03-18T22:58:49.256Z,93.60
2023-03-18T23:01:18.745Z,93.50
2023-03-18T23:03:47.423Z,93.70
2023-03-18T23:06:17.254Z,93.80
2023-03-18T23:08:45.708Z,93.90
2023-03-18T23:11:13.762Z,94.00
2023-03-18T23:13:43.230Z,94.20
2023-03-18T23:16:16.509Z,94.30
2023-03-18T23:18:43.468Z,94.40
2023-03-18T23:21:21.918Z,94.40
2023-03-18T23:23:49.588Z,94.50
2023-03-18T23:26:17.177Z,94.50
2023-03-18T23:28:45.300Z,94.50
2023-03-18T23:31:16.261Z,94.50
2023-03-18T23:33:43.478Z,94.40
2023-03-18T23:36:10.885Z,94.60
2023-03-18T23:38:38.108Z,94.50
2023-03-18T23:41:05.563Z,94.40
2023-03-18T23:43:32.342Z,94.20
2023-03-18T23:45:59.486Z,94.30
2023-03-18T23:48:26.329Z,94.40
2023-03-18T23:50:53.813Z,94.50
2023-03-18T23:53:20.866Z,94.60
2023-03-18T23:55:49.088Z,94.70
2023-03-18T23:58:16.223Z,94.60
